sensor_id;sensor_type;location;lat;lon;timestamp;P1;durP1;ratioP1;P2;durP2;ratioP2
789;SDS011;378;48.844;9.156;2022-07-26T00:00:17;4.82;;;1.52;;
789;SDS011;378;48.844;9.156;2022-07-26T00:02:45;4.95;;;1.65;;
789;SDS011;378;48.844;9.156;2022-07-26T00:05:12;5.40;;;1.60;;
789;SDS011;378;48.844;9.156;2022-07-26T00:07:39;5.32;;;1.58;;
789;SDS011;378;48.844;9.156;2022-07-26T00:10:07;3.85;;;1.33;;
789;SDS011;378;48.844;9.156;2022-07-26T00:12:34;6.93;;;1.73;;
789;SDS011;378;48.844;9.156;2022-07-26T00:15:02;7.53;;;1.70;;
789;SDS011;378;48.844;9.156;2022-07-26T00:17:32;4.10;;;1.45;;
789;SDS011;378;48.844;9.156;2022-07-26T00:19:59;4.78;;;1.60;;
789;SDS011;378;48.844;9.156;2022-07-26T00:22:25;4.03;;;1.35;;
789;SDS011;378;48.844;9.156;2022-07-26T00:25:04;4.88;;;1.52;;
789;SDS011;378;48.844;9.156;2022-07-26T00:27:33;3.13;;;1.40;;
789;SDS011;378;48.844;9.156;2022-07-26T00:30:02;4.63;;;1.60;;
789;SDS011;378;48.844;9.156;2022-07-26T00:32:31;3.90;;;1.48;;
789;SDS011;378;48.844;9.156;2022-07-26T00:34:58;3.05;;;1.30;;
789;SDS011;378;48.844;9.156;2022-07-26T00:37:25;2.70;;;1.30;;
789;SDS011;378;48.844;9.156;2022-07-26T00:39:52;3.35;;;1.10;;
789;SDS011;378;48.844;9.156;2022-07-26T00:42:19;6.63;;;1.50;;
789;SDS011;378;48.844;9.156;2022-07-26T00:44:46;3.60;;;1.20;;
789;SDS011;378;48.844;9.156;2022-07-26T00:47:13;3.42;;;1.48;;
789;SDS011;378;48.844;9.156;2022-07-26T00:49:42;6.68;;;1.23;;
789;SDS011;378;48.844;9.156;2022-07-26T00:52:10;2.72;;;1.35;;
789;SDS011;378;48.844;9.156;2022-07-26T00:54:37;3.45;;;1.50;;
789;SDS011;378;48.844;9.156;2022-07-26T00:57:07;5.35;;;1.23;;
789;SDS011;378;48.844;9.156;2022-07-26T00:59:35;3.13;;;1.20;;
789;SDS011;378;48.844;9.156;2022-07-26T01:02:02;3.25;;;1.40;;
789;SDS011;378;48.844;9.156;2022-07-26T01:04:31;3.03;;;1.00;;
789;SDS011;378;48.844;9.156;2022-07-26T01:06:59;3.67;;;1.27;;
789;SDS011;378;48.844;9.156;2022-07-26T01:09:26;6.53;;;1.45;;
789;SDS011;378;48.844;9.156;2022-07-26T01:11:54;5.18;;;1.90;;
789;SDS011;378;48.844;9.156;2022-07-26T01:14:21;4.85;;;1.98;;
789;SDS011;378;48.844;9.156;2022-07-26T01:16:49;4.47;;;1.85;;
789;SDS011;378;48.844;9.156;2022-07-26T01:19:16;4.38;;;1.75;;
789;SDS011;378;48.844;9.156;2022-07-26T01:21:45;5.53;;;2.10;;
789;SDS011;378;48.844;9.156;2022-07-26T01:24:12;10.13;;;2.10;;
789;SDS011;378;48.844;9.156;2022-07-26T01:26:39;5.47;;;2.40;;
789;SDS011;378;48.844;9.156;2022-07-26T01:29:06;2.85;;;2.13;;
789;SDS011;378;48.844;9.156;2022-07-26T01:31:33;7.70;;;2.70;;
789;SDS011;378;48.844;9.156;2022-07-26T01:34:00;6.13;;;2.58;;
789;SDS011;378;48.844;9.156;2022-07-26T01:36:27;4.28;;;2.47;;
789;SDS011;378;48.844;9.156;2022-07-26T01:38:55;4.68;;;2.60;;
789;SDS011;378;48.844;9.156;2022-07-26T01:41:22;4.20;;;2.42;;
789;SDS011;378;48.844;9.156;2022-07-26T01:43:49;6.63;;;2.58;;
789;SDS011;378;48.844;9.156;2022-07-26T01:46:16;5.88;;;2.58;;
789;SDS011;378;48.844;9.156;2022-07-26T01:48:43;4.05;;;2.53;;
789;SDS011;378;48.844;9.156;2022-07-26T01:51:10;4.75;;;2.58;;
789;SDS011;378;48.844;9.156;2022-07-26T01:53:37;7.63;;;2.65;;
789;SDS011;378;48.844;9.156;2022-07-26T01:56:05;3.30;;;2.15;;
789;SDS011;378;48.844;9.156;2022-07-26T01:58:32;2.95;;;2.25;;
789;SDS011;378;48.844;9.156;2022-07-26T02:00:59;6.43;;;2.40;;
789;SDS011;378;48.844;9.156;2022-07-26T02:03:26;4.80;;;2.42;;
789;SDS011;378;48.844;9.156;2022-07-26T02:05:53;4.32;;;2.00;;
789;SDS011;378;48.844;9.156;2022-07-26T02:08:20;3.85;;;2.05;;
789;SDS011;378;48.844;9.156;2022-07-26T02:10:46;2.88;;;2.20;;
789;SDS011;378;48.844;9.156;2022-07-26T02:13:27;2.80;;;2.13;;
789;SDS011;378;48.844;9.156;2022-07-26T02:15:54;3.63;;;2.00;;
789;SDS011;378;48.844;9.156;2022-07-26T02:18:23;6.75;;;1.90;;
789;SDS011;378;48.844;9.156;2022-07-26T02:20:50;4.10;;;2.33;;
789;SDS011;378;48.844;9.156;2022-07-26T02:23:17;4.00;;;2.00;;
789;SDS011;378;48.844;9.156;2022-07-26T02:25:44;5.40;;;2.10;;
789;SDS011;378;48.844;9.156;2022-07-26T02:28:11;3.28;;;2.03;;
789;SDS011;378;48.844;9.156;2022-07-26T02:30:40;6.40;;;2.08;;
789;SDS011;378;48.844;9.156;2022-07-26T02:33:07;4.22;;;2.28;;
789;SDS011;378;48.844;9.156;2022-07-26T02:35:34;2.97;;;2.00;;
789;SDS011;378;48.844;9.156;2022-07-26T02:38:01;2.92;;;1.70;;
789;SDS011;378;48.844;9.156;2022-07-26T02:40:28;3.78;;;1.58;;
789;SDS011;378;48.844;9.156;2022-07-26T02:42:55;2.33;;;1.48;;
789;SDS011;378;48.844;9.156;2022-07-26T02:45:22;5.30;;;2.00;;
789;SDS011;378;48.844;9.156;2022-07-26T02:47:52;3.97;;;1.55;;
789;SDS011;378;48.844;9.156;2022-07-26T02:50:20;1.92;;;1.73;;
789;SDS011;378;48.844;9.156;2022-07-26T02:52:48;2.00;;;1.45;;
789;SDS011;378;48.844;9.156;2022-07-26T02:55:17;1.85;;;1.40;;
789;SDS011;378;48.844;9.156;2022-07-26T02:57:46;3.08;;;1.67;;
789;SDS011;378;48.844;9.156;2022-07-26T03:00:13;2.45;;;1.52;;
789;SDS011;378;48.844;9.156;2022-07-26T03:02:42;3.47;;;1.38;;
789;SDS011;378;48.844;9.156;2022-07-26T03:05:10;5.93;;;1.30;;
789;SDS011;378;48.844;9.156;2022-07-26T03:07:37;3.15;;;1.60;;
789;SDS011;378;48.844;9.156;2022-07-26T03:10:05;2.97;;;1.30;;
789;SDS011;378;48.844;9.156;2022-07-26T03:12:33;2.63;;;1.70;;
789;SDS011;378;48.844;9.156;2022-07-26T03:15:00;4.03;;;1.63;;
789;SDS011;378;48.844;9.156;2022-07-26T03:17:27;2.65;;;1.40;;
789;SDS011;378;48.844;9.156;2022-07-26T03:19:54;3.13;;;1.50;;
789;SDS011;378;48.844;9.156;2022-07-26T03:22:22;3.25;;;1.55;;
789;SDS011;378;48.844;9.156;2022-07-26T03:24:49;3.42;;;1.48;;
789;SDS011;378;48.844;9.156;2022-07-26T03:27:16;2.40;;;1.50;;
789;SDS011;378;48.844;9.156;2022-07-26T03:29:43;3.22;;;1.55;;
789;SDS011;378;48.844;9.156;2022-07-26T03:32:09;2.60;;;1.50;;
789;SDS011;378;48.844;9.156;2022-07-26T03:34:36;3.95;;;1.30;;
789;SDS011;378;48.844;9.156;2022-07-26T03:37:03;3.60;;;1.52;;
789;SDS011;378;48.844;9.156;2022-07-26T03:39:32;2.33;;;1.60;;
789;SDS011;378;48.844;9.156;2022-07-26T03:41:59;2.25;;;1.50;;
789;SDS011;378;48.844;9.156;2022-07-26T03:44:25;2.75;;;1.38;;
789;SDS011;378;48.844;9.156;2022-07-26T03:46:52;4.90;;;1.65;;
789;SDS011;378;48.844;9.156;2022-07-26T03:49:19;2.78;;;1.73;;
789;SDS011;378;48.844;9.156;2022-07-26T03:51:46;1.88;;;1.42;;
789;SDS011;378;48.844;9.156;2022-07-26T03:54:13;2.28;;;1.50;;
789;SDS011;378;48.844;9.156;2022-07-26T03:56:41;3.65;;;1.50;;
789;SDS011;378;48.844;9.156;2022-07-26T03:59:08;2.55;;;1.60;;
789;SDS011;378;48.844;9.156;2022-07-26T04:01:36;3.00;;;1.35;;
789;SDS011;378;48.844;9.156;2022-07-26T04:04:05;5.72;;;2.00;;
789;SDS011;378;48.844;9.156;2022-07-26T04:06:33;4.00;;;1.80;;
789;SDS011;378;48.844;9.156;2022-07-26T04:09:00;2.55;;;1.58;;
789;SDS011;378;48.844;9.156;2022-07-26T04:11:27;2.40;;;1.50;;
789;SDS011;378;48.844;9.156;2022-07-26T04:13:55;3.00;;;1.58;;
789;SDS011;378;48.844;9.156;2022-07-26T04:16:23;2.30;;;1.60;;
789;SDS011;378;48.844;9.156;2022-07-26T04:18:50;2.92;;;1.33;;
789;SDS011;378;48.844;9.156;2022-07-26T04:21:17;2.55;;;1.58;;
789;SDS011;378;48.844;9.156;2022-07-26T04:23:44;2.40;;;1.75;;
789;SDS011;378;48.844;9.156;2022-07-26T04:26:11;1.48;;;1.20;;
789;SDS011;378;48.844;9.156;2022-07-26T04:28:38;2.33;;;1.80;;
789;SDS011;378;48.844;9.156;2022-07-26T04:31:07;1.88;;;1.17;;
789;SDS011;378;48.844;9.156;2022-07-26T04:33:34;2.75;;;1.65;;
789;SDS011;378;48.844;9.156;2022-07-26T04:36:01;6.85;;;1.98;;
789;SDS011;378;48.844;9.156;2022-07-26T04:38:29;2.25;;;1.60;;
789;SDS011;378;48.844;9.156;2022-07-26T04:40:56;1.95;;;1.30;;
789;SDS011;378;48.844;9.156;2022-07-26T04:43:23;3.40;;;1.38;;
789;SDS011;378;48.844;9.156;2022-07-26T04:45:50;3.45;;;1.65;;
789;SDS011;378;48.844;9.156;2022-07-26T04:48:19;2.97;;;1.63;;
789;SDS011;378;48.844;9.156;2022-07-26T04:50:46;2.75;;;1.58;;
789;SDS011;378;48.844;9.156;2022-07-26T04:53:12;2.47;;;1.50;;
789;SDS011;378;48.844;9.156;2022-07-26T04:55:40;4.28;;;1.67;;
789;SDS011;378;48.844;9.156;2022-07-26T04:58:07;3.67;;;1.60;;
789;SDS011;378;48.844;9.156;2022-07-26T05:00:35;2.55;;;1.60;;
789;SDS011;378;48.844;9.156;2022-07-26T05:03:03;4.22;;;1.70;;
789;SDS011;378;48.844;9.156;2022-07-26T05:05:32;6.47;;;1.75;;
789;SDS011;378;48.844;9.156;2022-07-26T05:07:59;4.72;;;1.58;;
789;SDS011;378;48.844;9.156;2022-07-26T05:10:28;3.85;;;1.27;;
789;SDS011;378;48.844;9.156;2022-07-26T05:12:56;3.05;;;1.63;;
789;SDS011;378;48.844;9.156;2022-07-26T05:15:23;3.92;;;1.50;;
789;SDS011;378;48.844;9.156;2022-07-26T05:17:50;2.20;;;1.55;;
789;SDS011;378;48.844;9.156;2022-07-26T05:22:57;3.30;;;1.40;;
789;SDS011;378;48.844;9.156;2022-07-26T05:25:24;4.88;;;1.80;;
789;SDS011;378;48.844;9.156;2022-07-26T05:27:52;3.65;;;1.50;;
789;SDS011;378;48.844;9.156;2022-07-26T05:30:19;3.58;;;1.85;;
789;SDS011;378;48.844;9.156;2022-07-26T05:32:46;2.63;;;1.88;;
789;SDS011;378;48.844;9.156;2022-07-26T05:35:12;3.75;;;1.60;;
789;SDS011;378;48.844;9.156;2022-07-26T05:37:39;4.72;;;1.83;;
789;SDS011;378;48.844;9.156;2022-07-26T05:40:09;3.88;;;1.90;;
789;SDS011;378;48.844;9.156;2022-07-26T05:42:36;2.72;;;1.90;;
789;SDS011;378;48.844;9.156;2022-07-26T05:45:04;4.07;;;1.92;;
789;SDS011;378;48.844;9.156;2022-07-26T05:47:31;4.22;;;1.95;;
789;SDS011;378;48.844;9.156;2022-07-26T05:49:58;4.28;;;1.40;;
789;SDS011;378;48.844;9.156;2022-07-26T05:52:25;3.00;;;1.83;;
789;SDS011;378;48.844;9.156;2022-07-26T05:54:52;3.90;;;1.88;;
789;SDS011;378;48.844;9.156;2022-07-26T05:57:20;3.33;;;1.67;;
789;SDS011;378;48.844;9.156;2022-07-26T05:59:47;3.22;;;1.70;;
789;SDS011;378;48.844;9.156;2022-07-26T06:02:14;5.25;;;2.05;;
789;SDS011;378;48.844;9.156;2022-07-26T06:04:41;4.97;;;1.60;;
789;SDS011;378;48.844;9.156;2022-07-26T06:07:08;5.03;;;1.58;;
789;SDS011;378;48.844;9.156;2022-07-26T06:09:35;5.22;;;1.80;;
789;SDS011;378;48.844;9.156;2022-07-26T06:12:02;2.95;;;1.40;;
789;SDS011;378;48.844;9.156;2022-07-26T06:14:31;7.85;;;1.70;;
789;SDS011;378;48.844;9.156;2022-07-26T06:16:58;2.63;;;1.33;;
789;SDS011;378;48.844;9.156;2022-07-26T06:19:24;5.85;;;1.50;;
789;SDS011;378;48.844;9.156;2022-07-26T06:21:52;3.28;;;1.30;;
789;SDS011;378;48.844;9.156;2022-07-26T06:24:18;2.90;;;1.25;;
789;SDS011;378;48.844;9.156;2022-07-26T06:26:45;3.47;;;1.02;;
789;SDS011;378;48.844;9.156;2022-07-26T06:29:14;6.95;;;1.42;;
789;SDS011;378;48.844;9.156;2022-07-26T06:31:42;5.88;;;1.20;;
789;SDS011;378;48.844;9.156;2022-07-26T06:34:09;4.05;;;1.33;;
789;SDS011;378;48.844;9.156;2022-07-26T06:36:36;2.60;;;1.23;;
789;SDS011;378;48.844;9.156;2022-07-26T06:39:03;2.33;;;1.00;;
789;SDS011;378;48.844;9.156;2022-07-26T06:41:30;4.47;;;1.40;;
789;SDS011;378;48.844;9.156;2022-07-26T06:43:56;2.63;;;1.08;;
789;SDS011;378;48.844;9.156;2022-07-26T06:46:23;4.53;;;1.30;;
789;SDS011;378;48.844;9.156;2022-07-26T06:48:52;3.38;;;0.98;;
789;SDS011;378;48.844;9.156;2022-07-26T06:51:19;3.75;;;1.30;;
789;SDS011;378;48.844;9.156;2022-07-26T06:53:46;3.53;;;0.80;;
789;SDS011;378;48.844;9.156;2022-07-26T06:56:15;3.88;;;1.00;;
789;SDS011;378;48.844;9.156;2022-07-26T06:58:42;3.33;;;0.90;;
789;SDS011;378;48.844;9.156;2022-07-26T07:01:09;3.17;;;1.17;;
789;SDS011;378;48.844;9.156;2022-07-26T07:03:36;2.45;;;1.05;;
789;SDS011;378;48.844;9.156;2022-07-26T07:06:05;2.53;;;0.98;;
789;SDS011;378;48.844;9.156;2022-07-26T07:08:32;3.20;;;1.10;;
789;SDS011;378;48.844;9.156;2022-07-26T07:10:59;2.88;;;0.80;;
789;SDS011;378;48.844;9.156;2022-07-26T07:13:25;2.33;;;0.75;;
789;SDS011;378;48.844;9.156;2022-07-26T07:15:53;1.77;;;0.68;;
789;SDS011;378;48.844;9.156;2022-07-26T07:18:19;4.97;;;0.90;;
789;SDS011;378;48.844;9.156;2022-07-26T07:20:46;4.45;;;0.63;;
789;SDS011;378;48.844;9.156;2022-07-26T07:23:15;1.35;;;0.65;;
789;SDS011;378;48.844;9.156;2022-07-26T07:25:41;5.15;;;1.00;;
789;SDS011;378;48.844;9.156;2022-07-26T07:28:08;5.30;;;0.90;;
789;SDS011;378;48.844;9.156;2022-07-26T07:30:35;2.38;;;1.00;;
789;SDS011;378;48.844;9.156;2022-07-26T07:33:02;3.13;;;0.80;;
789;SDS011;378;48.844;9.156;2022-07-26T07:35:29;2.67;;;0.73;;
789;SDS011;378;48.844;9.156;2022-07-26T07:37:56;2.88;;;0.73;;
789;SDS011;378;48.844;9.156;2022-07-26T07:40:24;2.97;;;0.57;;
789;SDS011;378;48.844;9.156;2022-07-26T07:42:51;3.50;;;0.90;;
789;SDS011;378;48.844;9.156;2022-07-26T07:45:18;4.55;;;0.80;;
789;SDS011;378;48.844;9.156;2022-07-26T07:47:45;3.22;;;0.65;;
789;SDS011;378;48.844;9.156;2022-07-26T07:50:12;3.88;;;0.82;;
789;SDS011;378;48.844;9.156;2022-07-26T07:52:39;2.97;;;0.65;;
789;SDS011;378;48.844;9.156;2022-07-26T07:55:06;0.95;;;0.60;;
789;SDS011;378;48.844;9.156;2022-07-26T07:57:35;4.78;;;0.80;;
789;SDS011;378;48.844;9.156;2022-07-26T08:00:03;2.28;;;0.70;;
789;SDS011;378;48.844;9.156;2022-07-26T08:02:31;6.13;;;0.80;;
789;SDS011;378;48.844;9.156;2022-07-26T08:04:57;1.27;;;0.50;;
789;SDS011;378;48.844;9.156;2022-07-26T08:07:24;2.20;;;0.85;;
789;SDS011;378;48.844;9.156;2022-07-26T08:09:51;3.03;;;0.75;;
789;SDS011;378;48.844;9.156;2022-07-26T08:12:18;1.92;;;0.70;;
789;SDS011;378;48.844;9.156;2022-07-26T08:14:46;2.28;;;0.60;;
789;SDS011;378;48.844;9.156;2022-07-26T08:17:13;2.65;;;0.70;;
789;SDS011;378;48.844;9.156;2022-07-26T08:19:40;2.03;;;0.68;;
789;SDS011;378;48.844;9.156;2022-07-26T08:22:07;1.83;;;0.68;;
789;SDS011;378;48.844;9.156;2022-07-26T08:24:34;6.57;;;0.70;;
789;SDS011;378;48.844;9.156;2022-07-26T08:27:01;1.15;;;0.55;;
789;SDS011;378;48.844;9.156;2022-07-26T08:29:27;4.65;;;0.70;;
789;SDS011;378;48.844;9.156;2022-07-26T08:31:56;1.90;;;0.63;;
789;SDS011;378;48.844;9.156;2022-07-26T08:34:23;3.20;;;0.55;;
789;SDS011;378;48.844;9.156;2022-07-26T08:36:49;3.22;;;0.80;;
789;SDS011;378;48.844;9.156;2022-07-26T08:39:16;0.55;;;0.35;;
789;SDS011;378;48.844;9.156;2022-07-26T08:41:43;0.98;;;0.47;;
789;SDS011;378;48.844;9.156;2022-07-26T08:44:10;1.67;;;0.50;;
789;SDS011;378;48.844;9.156;2022-07-26T08:46:38;1.98;;;0.50;;
789;SDS011;378;48.844;9.156;2022-07-26T08:49:08;3.03;;;0.70;;
789;SDS011;378;48.844;9.156;2022-07-26T08:51:36;1.00;;;0.55;;
789;SDS011;378;48.844;9.156;2022-07-26T08:54:04;2.85;;;0.60;;
789;SDS011;378;48.844;9.156;2022-07-26T08:56:32;3.03;;;0.70;;
789;SDS011;378;48.844;9.156;2022-07-26T08:59:04;7.25;;;0.70;;
789;SDS011;378;48.844;9.156;2022-07-26T09:01:31;3.53;;;0.85;;
789;SDS011;378;48.844;9.156;2022-07-26T09:04:00;4.68;;;0.80;;
789;SDS011;378;48.844;9.156;2022-07-26T09:06:52;2.28;;;0.50;;
789;SDS011;378;48.844;9.156;2022-07-26T09:09:23;4.43;;;0.73;;
789;SDS011;378;48.844;9.156;2022-07-26T09:11:51;2.45;;;0.70;;
789;SDS011;378;48.844;9.156;2022-07-26T09:14:19;0.70;;;0.52;;
789;SDS011;378;48.844;9.156;2022-07-26T09:16:55;1.05;;;0.55;;
789;SDS011;378;48.844;9.156;2022-07-26T09:19:25;1.13;;;0.60;;
789;SDS011;378;48.844;9.156;2022-07-26T09:21:53;4.72;;;0.70;;
789;SDS011;378;48.844;9.156;2022-07-26T09:24:31;1.00;;;0.52;;
789;SDS011;378;48.844;9.156;2022-07-26T09:26:59;1.98;;;0.63;;
789;SDS011;378;48.844;9.156;2022-07-26T09:29:27;0.80;;;0.60;;
789;SDS011;378;48.844;9.156;2022-07-26T09:34:42;1.92;;;0.60;;
789;SDS011;378;48.844;9.156;2022-07-26T09:37:09;4.68;;;0.80;;
789;SDS011;378;48.844;9.156;2022-07-26T09:42:18;3.40;;;0.63;;
789;SDS011;378;48.844;9.156;2022-07-26T09:44:46;5.88;;;0.68;;
789;SDS011;378;48.844;9.156;2022-07-26T09:47:13;1.73;;;0.68;;
789;SDS011;378;48.844;9.156;2022-07-26T09:49:42;4.63;;;0.68;;
789;SDS011;378;48.844;9.156;2022-07-26T09:52:15;2.53;;;0.70;;
789;SDS011;378;48.844;9.156;2022-07-26T09:54:43;1.83;;;0.63;;
789;SDS011;378;48.844;9.156;2022-07-26T09:57:13;2.85;;;0.70;;
789;SDS011;378;48.844;9.156;2022-07-26T09:59:41;0.95;;;0.40;;
789;SDS011;378;48.844;9.156;2022-07-26T10:02:08;4.95;;;0.52;;
789;SDS011;378;48.844;9.156;2022-07-26T10:04:37;5.47;;;0.93;;
789;SDS011;378;48.844;9.156;2022-07-26T10:07:05;2.35;;;0.80;;
789;SDS011;378;48.844;9.156;2022-07-26T10:09:35;4.80;;;0.80;;
789;SDS011;378;48.844;9.156;2022-07-26T10:12:07;3.65;;;0.80;;
789;SDS011;378;48.844;9.156;2022-07-26T10:14:40;3.10;;;0.90;;
789;SDS011;378;48.844;9.156;2022-07-26T10:20:06;2.25;;;0.65;;
789;SDS011;378;48.844;9.156;2022-07-26T10:22:40;6.47;;;0.82;;
789;SDS011;378;48.844;9.156;2022-07-26T10:28:22;2.67;;;0.60;;
789;SDS011;378;48.844;9.156;2022-07-26T10:30:51;3.58;;;0.63;;
789;SDS011;378;48.844;9.156;2022-07-26T10:33:18;2.88;;;0.68;;
789;SDS011;378;48.844;9.156;2022-07-26T10:35:49;1.25;;;0.60;;
789;SDS011;378;48.844;9.156;2022-07-26T10:38:22;1.33;;;0.77;;
789;SDS011;378;48.844;9.156;2022-07-26T10:40:54;1.38;;;0.80;;
789;SDS011;378;48.844;9.156;2022-07-26T10:43:22;3.35;;;0.70;;
789;SDS011;378;48.844;9.156;2022-07-26T10:45:52;2.22;;;0.60;;
789;SDS011;378;48.844;9.156;2022-07-26T10:48:54;2.83;;;0.50;;
789;SDS011;378;48.844;9.156;2022-07-26T10:51:24;2.03;;;0.70;;
789;SDS011;378;48.844;9.156;2022-07-26T10:54:03;3.33;;;0.50;;
789;SDS011;378;48.844;9.156;2022-07-26T10:56:31;3.45;;;0.60;;
789;SDS011;378;48.844;9.156;2022-07-26T10:58:57;3.15;;;0.57;;
789;SDS011;378;48.844;9.156;2022-07-26T11:01:30;4.32;;;0.75;;
789;SDS011;378;48.844;9.156;2022-07-26T11:03:58;1.63;;;0.77;;
789;SDS011;378;48.844;9.156;2022-07-26T11:06:25;1.05;;;0.70;;
789;SDS011;378;48.844;9.156;2022-07-26T11:08:53;2.47;;;0.60;;
789;SDS011;378;48.844;9.156;2022-07-26T11:11:29;3.10;;;0.68;;
789;SDS011;378;48.844;9.156;2022-07-26T11:14:06;4.60;;;0.80;;
789;SDS011;378;48.844;9.156;2022-07-26T11:16:37;5.45;;;0.70;;
789;SDS011;378;48.844;9.156;2022-07-26T11:19:12;2.20;;;0.65;;
789;SDS011;378;48.844;9.156;2022-07-26T11:21:39;2.03;;;0.70;;
789;SDS011;378;48.844;9.156;2022-07-26T11:24:07;1.10;;;0.68;;
789;SDS011;378;48.844;9.156;2022-07-26T11:26:40;4.60;;;0.55;;
789;SDS011;378;48.844;9.156;2022-07-26T11:29:07;1.95;;;0.60;;
789;SDS011;378;48.844;9.156;2022-07-26T11:31:35;1.83;;;0.70;;
789;SDS011;378;48.844;9.156;2022-07-26T11:34:03;0.88;;;0.50;;
789;SDS011;378;48.844;9.156;2022-07-26T11:36:35;3.17;;;0.70;;
789;SDS011;378;48.844;9.156;2022-07-26T11:39:04;1.95;;;0.65;;
789;SDS011;378;48.844;9.156;2022-07-26T11:41:33;1.65;;;0.57;;
789;SDS011;378;48.844;9.156;2022-07-26T11:44:02;3.83;;;0.47;;
789;SDS011;378;48.844;9.156;2022-07-26T11:46:33;1.08;;;0.40;;
789;SDS011;378;48.844;9.156;2022-07-26T11:49:03;1.52;;;0.50;;
789;SDS011;378;48.844;9.156;2022-07-26T11:51:37;0.90;;;0.40;;
789;SDS011;378;48.844;9.156;2022-07-26T11:54:04;1.13;;;0.50;;
789;SDS011;378;48.844;9.156;2022-07-26T11:56:31;2.28;;;0.77;;
789;SDS011;378;48.844;9.156;2022-07-26T11:58:58;1.48;;;0.60;;
789;SDS011;378;48.844;9.156;2022-07-26T12:01:27;1.33;;;0.45;;
789;SDS011;378;48.844;9.156;2022-07-26T12:03:54;3.15;;;0.70;;
789;SDS011;378;48.844;9.156;2022-07-26T12:06:22;1.10;;;0.50;;
789;SDS011;378;48.844;9.156;2022-07-26T12:08:51;0.80;;;0.40;;
789;SDS011;378;48.844;9.156;2022-07-26T12:11:19;2.58;;;0.50;;
789;SDS011;378;48.844;9.156;2022-07-26T12:13:48;0.98;;;0.40;;
789;SDS011;378;48.844;9.156;2022-07-26T12:16:33;0.85;;;0.40;;
789;SDS011;378;48.844;9.156;2022-07-26T12:19:01;3.35;;;0.50;;
789;SDS011;378;48.844;9.156;2022-07-26T12:21:39;1.00;;;0.70;;
789;SDS011;378;48.844;9.156;2022-07-26T12:24:08;3.40;;;0.55;;
789;SDS011;378;48.844;9.156;2022-07-26T12:26:36;1.65;;;0.60;;
789;SDS011;378;48.844;9.156;2022-07-26T12:29:03;2.67;;;0.43;;
789;SDS011;378;48.844;9.156;2022-07-26T12:32:00;3.13;;;0.60;;
789;SDS011;378;48.844;9.156;2022-07-26T12:34:28;3.78;;;0.50;;
789;SDS011;378;48.844;9.156;2022-07-26T12:37:04;1.50;;;0.50;;
789;SDS011;378;48.844;9.156;2022-07-26T12:39:32;4.07;;;0.60;;
789;SDS011;378;48.844;9.156;2022-07-26T12:41:59;0.88;;;0.40;;
789;SDS011;378;48.844;9.156;2022-07-26T12:44:45;0.73;;;0.40;;
789;SDS011;378;48.844;9.156;2022-07-26T12:47:14;0.68;;;0.30;;
789;SDS011;378;48.844;9.156;2022-07-26T12:49:41;2.58;;;0.50;;
789;SDS011;378;48.844;9.156;2022-07-26T12:52:10;5.20;;;0.57;;
789;SDS011;378;48.844;9.156;2022-07-26T12:54:38;2.38;;;0.40;;
789;SDS011;378;48.844;9.156;2022-07-26T12:57:05;0.52;;;0.35;;
789;SDS011;378;48.844;9.156;2022-07-26T12:59:32;1.80;;;0.40;;
789;SDS011;378;48.844;9.156;2022-07-26T13:01:59;0.93;;;0.40;;
789;SDS011;378;48.844;9.156;2022-07-26T13:04:27;2.78;;;0.57;;
789;SDS011;378;48.844;9.156;2022-07-26T13:06:55;3.67;;;0.70;;
789;SDS011;378;48.844;9.156;2022-07-26T13:09:22;4.13;;;0.50;;
789;SDS011;378;48.844;9.156;2022-07-26T13:11:48;2.20;;;0.60;;
789;SDS011;378;48.844;9.156;2022-07-26T13:14:15;1.27;;;0.40;;
789;SDS011;378;48.844;9.156;2022-07-26T13:16:42;1.55;;;0.45;;
789;SDS011;378;48.844;9.156;2022-07-26T13:19:09;3.20;;;0.60;;
789;SDS011;378;48.844;9.156;2022-07-26T13:21:38;0.55;;;0.35;;
789;SDS011;378;48.844;9.156;2022-07-26T13:24:05;1.48;;;0.68;;
789;SDS011;378;48.844;9.156;2022-07-26T13:26:32;1.42;;;0.30;;
789;SDS011;378;48.844;9.156;2022-07-26T13:28:59;1.60;;;0.40;;
789;SDS011;378;48.844;9.156;2022-07-26T13:31:26;3.40;;;0.60;;
789;SDS011;378;48.844;9.156;2022-07-26T13:33:52;1.15;;;0.50;;
789;SDS011;378;48.844;9.156;2022-07-26T13:36:19;1.33;;;0.60;;
789;SDS011;378;48.844;9.156;2022-07-26T13:38:48;2.05;;;0.57;;
789;SDS011;378;48.844;9.156;2022-07-26T13:41:14;0.50;;;0.45;;
789;SDS011;378;48.844;9.156;2022-07-26T13:43:42;0.90;;;0.57;;
789;SDS011;378;48.844;9.156;2022-07-26T13:46:09;2.63;;;0.70;;
789;SDS011;378;48.844;9.156;2022-07-26T13:48:35;2.15;;;0.70;;
789;SDS011;378;48.844;9.156;2022-07-26T13:51:03;1.17;;;0.60;;
789;SDS011;378;48.844;9.156;2022-07-26T13:53:30;2.05;;;0.38;;
789;SDS011;378;48.844;9.156;2022-07-26T13:55:58;3.00;;;0.60;;
789;SDS011;378;48.844;9.156;2022-07-26T13:58:25;0.50;;;0.32;;
789;SDS011;378;48.844;9.156;2022-07-26T14:00:52;1.15;;;0.50;;
789;SDS011;378;48.844;9.156;2022-07-26T14:03:19;2.38;;;0.50;;
789;SDS011;378;48.844;9.156;2022-07-26T14:05:46;0.80;;;0.60;;
789;SDS011;378;48.844;9.156;2022-07-26T14:08:13;1.50;;;0.50;;
789;SDS011;378;48.844;9.156;2022-07-26T14:10:40;1.63;;;0.50;;
789;SDS011;378;48.844;9.156;2022-07-26T14:13:08;2.75;;;0.60;;
789;SDS011;378;48.844;9.156;2022-07-26T14:15:35;4.25;;;0.50;;
789;SDS011;378;48.844;9.156;2022-07-26T14:18:02;2.63;;;0.55;;
789;SDS011;378;48.844;9.156;2022-07-26T14:20:29;1.48;;;0.50;;
789;SDS011;378;48.844;9.156;2022-07-26T14:22:56;3.95;;;0.40;;
789;SDS011;378;48.844;9.156;2022-07-26T14:25:24;2.15;;;0.60;;
789;SDS011;378;48.844;9.156;2022-07-26T14:27:52;2.72;;;0.55;;
789;SDS011;378;48.844;9.156;2022-07-26T14:30:21;1.73;;;0.60;;
789;SDS011;378;48.844;9.156;2022-07-26T14:32:48;0.80;;;0.47;;
789;SDS011;378;48.844;9.156;2022-07-26T14:35:16;2.88;;;0.50;;
789;SDS011;378;48.844;9.156;2022-07-26T14:37:43;2.15;;;0.40;;
789;SDS011;378;48.844;9.156;2022-07-26T14:40:10;3.75;;;0.60;;
789;SDS011;378;48.844;9.156;2022-07-26T14:42:38;3.47;;;0.60;;
789;SDS011;378;48.844;9.156;2022-07-26T14:45:06;3.03;;;0.60;;
789;SDS011;378;48.844;9.156;2022-07-26T14:47:35;3.80;;;0.60;;
789;SDS011;378;48.844;9.156;2022-07-26T14:50:03;1.25;;;0.57;;
789;SDS011;378;48.844;9.156;2022-07-26T14:52:30;3.30;;;0.60;;
789;SDS011;378;48.844;9.156;2022-07-26T14:54:57;1.80;;;0.50;;
789;SDS011;378;48.844;9.156;2022-07-26T14:57:24;1.00;;;0.47;;
789;SDS011;378;48.844;9.156;2022-07-26T14:59:51;1.05;;;0.50;;
789;SDS011;378;48.844;9.156;2022-07-26T15:02:18;0.98;;;0.60;;
789;SDS011;378;48.844;9.156;2022-07-26T15:04:46;1.38;;;0.50;;
789;SDS011;378;48.844;9.156;2022-07-26T15:07:13;3.70;;;0.50;;
789;SDS011;378;48.844;9.156;2022-07-26T15:09:40;3.97;;;0.50;;
789;SDS011;378;48.844;9.156;2022-07-26T15:12:07;7.35;;;0.40;;
789;SDS011;378;48.844;9.156;2022-07-26T15:14:34;2.63;;;0.50;;
789;SDS011;378;48.844;9.156;2022-07-26T15:17:01;2.45;;;0.40;;
789;SDS011;378;48.844;9.156;2022-07-26T15:19:28;2.45;;;0.60;;
789;SDS011;378;48.844;9.156;2022-07-26T15:21:56;1.17;;;0.40;;
789;SDS011;378;48.844;9.156;2022-07-26T15:24:24;2.72;;;0.40;;
789;SDS011;378;48.844;9.156;2022-07-26T15:26:51;2.15;;;0.50;;
789;SDS011;378;48.844;9.156;2022-07-26T15:29:18;2.00;;;0.35;;
789;SDS011;378;48.844;9.156;2022-07-26T15:31:45;1.27;;;0.50;;
789;SDS011;378;48.844;9.156;2022-07-26T15:34:12;1.38;;;0.60;;
789;SDS011;378;48.844;9.156;2022-07-26T15:36:39;1.25;;;0.40;;
789;SDS011;378;48.844;9.156;2022-07-26T15:39:07;2.65;;;0.50;;
789;SDS011;378;48.844;9.156;2022-07-26T15:41:34;4.85;;;0.60;;
789;SDS011;378;48.844;9.156;2022-07-26T15:44:02;0.98;;;0.50;;
789;SDS011;378;48.844;9.156;2022-07-26T15:46:29;3.15;;;0.40;;
789;SDS011;378;48.844;9.156;2022-07-26T15:48:55;4.80;;;0.80;;
789;SDS011;378;48.844;9.156;2022-07-26T15:51:24;2.70;;;0.70;;
789;SDS011;378;48.844;9.156;2022-07-26T15:53:50;1.52;;;0.70;;
789;SDS011;378;48.844;9.156;2022-07-26T15:56:19;0.88;;;0.50;;
789;SDS011;378;48.844;9.156;2022-07-26T15:58:45;1.85;;;0.60;;
789;SDS011;378;48.844;9.156;2022-07-26T16:01:12;2.35;;;0.40;;
789;SDS011;378;48.844;9.156;2022-07-26T16:03:39;4.32;;;0.70;;